M I D A S
Marine Information and Data Acquisition System
Tripno 675 of the Zeeleeuw from 2004-03-24 07:31:20 to 2004-03-24 15:50:46
Back to CruiseResearch ActivitiesStationsMapUnderway DataData graphs

EquipmentUnitsComment
TimeDGPSUTC
LatitudeDGPSDM.mWGS84
LongitudeDGPSDM.mWGS84
HeadingGyrodeg 
SOGDGPSknotsSpeed over ground
COGDGPSdegCourse over ground
DepthEcho soundermeters200 kHz
Missing or incorrect values are displayed as -999
Navigation data collected by the RV Zeeleeuw from 2004-03-24 07:31:20 to 2004-03-24 15:50:46
Time Latitude Longitude Heading SOG COG Depth
2004-03-24 07:32:24 51°13.594 2°56.096 132.4 0.1 160 6.1
2004-03-24 07:33:24 51°13.581 2°56.126 127.3 2.4 121 6.8
2004-03-24 07:34:24 51°13.558 2°56.199 119.5 3.3 118 8.1
2004-03-24 07:35:24 51°13.514 2°56.241 175.9 1.4 175 8.6
2004-03-24 07:36:24 51°13.532 2°56.249 209.3 0.8 6 -999
2004-03-24 07:37:24 51°13.53 2°56.238 245.9 0.7 61 -999
2004-03-24 07:38:24 51°13.537 2°56.2 291.3 4 288 8.4
2004-03-24 07:39:24 51°13.586 2°56.06 306 7.2 301 7.9
2004-03-24 07:40:24 51°13.649 2°55.91 308.4 6.5 304 8.9
2004-03-24 07:41:24 51°13.714 2°55.766 313.5 7.2 310 11.6
2004-03-24 07:42:24 51°13.809 2°55.644 332.6 7.5 330 8.8
2004-03-24 07:43:24 51°13.925 2°55.559 341.8 8.1 336 8.2
2004-03-24 07:44:24 51°14.054 2°55.465 341.3 8.9 336 9.4
2004-03-24 07:45:24 51°14.194 2°55.352 334.5 9.7 327 9.6
2004-03-24 07:46:24 51°14.319 2°55.155 314.4 11.4 308 9.4
2004-03-24 07:47:24 51°14.467 2°54.927 334.1 13.2 325 8.6
2004-03-24 07:48:24 51°14.659 2°54.762 348.3 13.1 340 7.9
2004-03-24 07:49:24 51°14.862 2°54.65 354 12.8 344 8
2004-03-24 07:50:24 51°15.062 2°54.546 349.3 12.2 338 6.7
2004-03-24 07:51:24 51°15.256 2°54.447 352 12.5 342 7.3
2004-03-24 07:52:24 51°15.461 2°54.385 7.9 12.6 359 7.8
2004-03-24 07:53:24 51°15.672 2°54.333 1.4 12.9 354 8.5
2004-03-24 07:54:24 51°15.887 2°54.346 11.2 12.9 1 9.3
2004-03-24 07:55:24 51°16.084 2°54.268 352 11.3 342 9.9
2004-03-24 07:56:24 51°16.218 2°54.255 30.5 5.2 21 10.4
2004-03-24 07:57:24 51°16.255 2°54.301 59.5 0.7 57 10.4
2004-03-24 07:58:25 51°16.24 2°54.272 91.6 1.4 236 -999
2004-03-24 07:59:24 51°16.224 2°54.255 96.5 1.3 193 10.3
2004-03-24 08:00:24 51°16.208 2°54.252 89.2 1.1 180 10.3
2004-03-24 08:01:24 51°16.197 2°54.254 74.6 0.4 167 10.3
2004-03-24 08:02:24 51°16.19 2°54.257 58 0.2 149 10.3
2004-03-24 08:03:24 51°16.19 2°54.258 45.2 0.1 7 10.2
2004-03-24 08:04:24 51°16.194 2°54.258 41.7 0.3 9 10.3
2004-03-24 08:05:24 51°16.197 2°54.258 42.4 0.1 69 10.3
2004-03-24 08:06:24 51°16.218 2°54.27 28.3 3.8 8 10.3
2004-03-24 08:07:24 51°16.319 2°54.156 320.4 11.1 306 10.4
2004-03-24 08:08:24 51°16.455 2°53.884 320.4 13.8 309 10.4
2004-03-24 08:09:24 51°16.588 2°53.58 309.3 14 296 10.3
2004-03-24 08:10:24 51°16.672 2°53.228 301.2 14.2 293 10.1
2004-03-24 08:11:24 51°16.768 2°52.89 303.6 13.8 294 8.7
2004-03-24 08:12:24 51°16.884 2°52.589 320 13.1 314 8.1
2004-03-24 08:13:24 51°17.06 2°52.381 336.1 13.2 326 8.2
2004-03-24 08:14:24 51°17.247 2°52.193 343.7 13.3 335 8.9
2004-03-24 08:15:24 51°17.44 2°52.018 334.8 13.4 324 8.9
2004-03-24 08:16:24 51°17.613 2°51.79 329.4 13.4 320 8.4
2004-03-24 08:17:24 51°17.782 2°51.556 328.8 13.5 319 8.3
2004-03-24 08:18:24 51°17.949 2°51.321 328 12.9 318 9.3
2004-03-24 08:19:24 51°18.087 2°51.127 330.4 10.3 318 10.8
2004-03-24 08:20:24 51°18.213 2°50.945 332 11 321 11.6
2004-03-24 08:21:24 51°18.38 2°50.863 16 8.8 8 12.3
2004-03-24 08:22:24 51°18.459 2°50.932 55.2 3.7 52 12.4
2004-03-24 08:23:24 51°18.487 2°50.989 51.1 1.9 48 12.5
2004-03-24 08:24:24 51°18.499 2°51.014 49.2 0.4 55 12.4
2004-03-24 08:25:24 51°18.496 2°51.02 51.2 0.4 147 12.6
2004-03-24 08:26:24 51°18.493 2°51.019 43.2 0.2 228 12.4
2004-03-24 08:27:24 51°18.489 2°51.015 42.6 0.3 213 12.4
2004-03-24 08:28:24 51°18.483 2°51.012 44.9 0.4 212 12.2
2004-03-24 08:29:24 51°18.477 2°51.009 46.1 0.4 190 12.4
2004-03-24 08:30:24 51°18.47 2°51.006 49.1 0.6 170 12.5
2004-03-24 08:31:24 51°18.462 2°51.002 49.8 0.5 200 12.3
2004-03-24 08:32:24 51°18.454 2°50.996 41.2 0.6 213 12.3
2004-03-24 08:33:24 51°18.446 2°50.985 32.3 0.7 222 12.3
2004-03-24 08:34:24 51°18.437 2°50.971 24.1 0.9 227 12.3
2004-03-24 08:35:24 51°18.427 2°50.953 15.5 0.9 228 12.3
2004-03-24 08:36:24 51°18.477 2°50.938 21.5 6.8 20 12.3
2004-03-24 08:37:24 51°18.571 2°51.127 62.3 10.5 60 12.4
2004-03-24 08:38:24 51°18.652 2°51.42 69.8 12.5 69 12.4
2004-03-24 08:39:24 51°18.734 2°51.726 70.4 12.6 67 11.8
2004-03-24 08:40:24 51°18.818 2°52.031 69.1 12.6 66 11.7
2004-03-24 08:41:24 51°18.903 2°52.338 69.1 12.6 66 11.5
2004-03-24 08:42:24 51°18.98 2°52.648 72.5 12.6 71 11
2004-03-24 08:43:24 51°19.052 2°52.959 72.5 12.4 71 10.6
2004-03-24 08:44:24 51°19.124 2°53.27 72.9 12.5 71 10.5
2004-03-24 08:45:24 51°19.197 2°53.58 72.1 12.4 69 10.6
2004-03-24 08:46:24 51°19.27 2°53.887 72 12.5 70 10.4
2004-03-24 08:47:24 51°19.341 2°54.195 72.6 12.3 68 10.5
2004-03-24 08:48:24 51°19.412 2°54.499 71.7 12.1 70 10.6
2004-03-24 08:49:24 51°19.483 2°54.803 72.6 12.2 70 10.6
2004-03-24 08:50:24 51°19.553 2°55.108 73 12.2 66 10.3
2004-03-24 08:51:24 51°19.624 2°55.41 72 12.1 69 10.4
2004-03-24 08:52:24 51°19.694 2°55.712 71.7 12.2 71 10.4
2004-03-24 08:53:24 51°19.758 2°56.017 74 12.3 71 10.1
2004-03-24 08:54:24 51°19.818 2°56.325 73.9 12.1 75 10.1
2004-03-24 08:55:24 51°19.88 2°56.63 74.4 12 72 9.9
2004-03-24 08:56:24 51°19.937 2°56.936 73.6 12 70 9.9
2004-03-24 08:57:24 51°19.999 2°57.237 74.4 11.9 72 9.6
2004-03-24 08:58:24 51°20.061 2°57.54 75.8 12 75 9.8
2004-03-24 08:59:24 51°20.122 2°57.84 74.9 11.9 73 9.5
2004-03-24 09:00:24 51°20.183 2°58.141 73.3 11.9 72 9.2
2004-03-24 09:01:24 51°20.245 2°58.441 73.5 11.9 72 9.3
2004-03-24 09:02:24 51°20.308 2°58.743 74.7 12 72 9.1
2004-03-24 09:03:24 51°20.37 2°59.046 74.7 12.1 73 9.1
2004-03-24 09:04:24 51°20.429 2°59.354 74.9 12 71 9.1
2004-03-24 09:05:24 51°20.494 2°59.657 74 12.1 71 8.9
2004-03-24 09:06:24 51°20.554 2°59.964 73.9 12.2 74 8.9
2004-03-24 09:07:24 51°20.615 3°0.271 73.9 12.1 72 8.9
2004-03-24 09:08:24 51°20.678 3°0.577 73.9 12.1 72 8.8
2004-03-24 09:09:24 51°20.742 3°0.883 73.3 12.2 70 8.6
2004-03-24 09:10:24 51°20.805 3°1.189 73.5 12.1 69 8.8
2004-03-24 09:11:24 51°20.869 3°1.495 74 12.1 71 8.7
2004-03-24 09:12:24 51°20.93 3°1.804 73.6 12.2 74 9
2004-03-24 09:13:24 51°20.995 3°2.108 73.2 12.1 73 9
2004-03-24 09:14:24 51°21.055 3°2.418 74.7 12.1 73 9.1
2004-03-24 09:15:24 51°21.115 3°2.726 74.2 12.2 72 9.1
2004-03-24 09:16:24 51°21.178 3°3.032 73.3 12.1 71 9
2004-03-24 09:17:24 51°21.24 3°3.341 75 12.3 74 8.9
2004-03-24 09:18:24 51°21.301 3°3.65 75.4 12.3 75 9.1
2004-03-24 09:19:24 51°21.363 3°3.959 73.8 12.2 72 9.1
2004-03-24 09:20:24 51°21.419 3°4.27 78.6 12.2 78 9.1
2004-03-24 09:21:25 51°21.459 3°4.593 71.5 11.9 64 9.2
2004-03-24 09:22:24 51°21.542 3°4.884 74.6 12.2 73 9.3
2004-03-24 09:23:24 51°21.6 3°5.197 74.9 12.2 72 9.5
2004-03-24 09:24:24 51°21.658 3°5.508 73.9 12.4 73 9.5
2004-03-24 09:25:24 51°21.716 3°5.819 74.9 12.2 71 9.4
2004-03-24 09:26:24 51°21.776 3°6.133 74.9 12.3 76 9.6
2004-03-24 09:27:24 51°21.835 3°6.445 75.6 12.2 74 9.8
2004-03-24 09:28:24 51°21.893 3°6.759 75.8 12.2 73 9.8
2004-03-24 09:29:24 51°21.947 3°7.074 78.5 12.3 78 10
2004-03-24 09:30:24 51°21.994 3°7.394 77.6 12.4 76 10.3
2004-03-24 09:31:24 51°22.042 3°7.713 78.5 12.4 76 10.4
2004-03-24 09:32:24 51°22.083 3°8.035 81.4 12.4 82 10.2
2004-03-24 09:33:24 51°22.11 3°8.361 83.5 12.2 82 10.6
2004-03-24 09:34:24 51°22.137 3°8.69 84.1 12.6 81 10.7
2004-03-24 09:35:24 51°22.166 3°9.018 83.4 12.5 81 10.9
2004-03-24 09:36:24 51°22.194 3°9.35 84.1 12.6 81 11.3
2004-03-24 09:37:24 51°22.224 3°9.682 83.8 12.8 82 11.8
2004-03-24 09:38:24 51°22.256 3°10.017 83.4 12.8 82 12.4
2004-03-24 09:39:24 51°22.287 3°10.354 83.2 12.8 81 13.2
2004-03-24 09:40:24 51°22.323 3°10.692 83.4 12.9 82 16.6
2004-03-24 09:41:24 51°22.358 3°11.03 82.4 12.7 80 14.1
2004-03-24 09:42:24 51°22.393 3°11.362 84.3 12.7 81 14
2004-03-24 09:43:24 51°22.427 3°11.694 83.7 12.7 81 13.9
2004-03-24 09:44:24 51°22.464 3°12.022 85.4 12.7 79 13.2
2004-03-24 09:45:24 51°22.501 3°12.351 84.1 12.6 78 12.8
2004-03-24 09:46:24 51°22.536 3°12.681 84.1 12.5 82 12.1
2004-03-24 09:47:24 51°22.573 3°12.983 79.6 9.5 75 11.6
2004-03-24 09:48:24 51°22.605 3°13.138 66.2 4.2 62 11.4
2004-03-24 09:49:24 51°22.628 3°13.186 57.8 0.3 256 11.4
2004-03-24 09:50:24 51°22.618 3°13.173 76.8 0.8 211 11.5
2004-03-24 09:51:24 51°22.607 3°13.168 75.5 0.6 181 11.5
2004-03-24 09:52:24 51°22.6 3°13.167 59.3 0.3 180 11.5
2004-03-24 09:53:24 51°22.597 3°13.167 57.3 0.1 157 11.4
2004-03-24 09:54:24 51°22.596 3°13.169 59.1 0.2 126 11.3
2004-03-24 09:55:24 51°22.595 3°13.171 57.5 0.1 76 11.5
2004-03-24 09:56:24 51°22.596 3°13.175 58.5 0.3 86 11.5
2004-03-24 09:57:24 51°22.598 3°13.179 55.6 0.3 28 11.4
2004-03-24 09:58:24 51°22.604 3°13.189 58.5 1.3 53 11.5
2004-03-24 09:59:24 51°22.648 3°13.293 58 7.8 53 11.1
2004-03-24 10:00:24 51°22.769 3°13.52 54.1 12.2 48 10
2004-03-24 10:01:24 51°22.917 3°13.755 49.6 12.7 42 9.6
2004-03-24 10:02:24 51°23.074 3°13.986 48.3 12.8 42 9.5
2004-03-24 10:03:24 51°23.23 3°14.21 45.7 12.5 39 8.9
2004-03-24 10:04:24 51°23.391 3°14.426 45.4 12.6 37 9.7
2004-03-24 10:05:24 51°23.56 3°14.631 43.5 12.7 35 10.2
2004-03-24 10:06:24 51°23.733 3°14.822 43.2 12.6 35 10.1
2004-03-24 10:07:24 51°23.904 3°15.011 43.5 12.5 34 10.9
2004-03-24 10:08:24 51°24.074 3°15.198 43.3 12.4 33 10.5
2004-03-24 10:09:24 51°24.246 3°15.384 42 12.7 33 11
2004-03-24 10:10:24 51°24.417 3°15.578 47.5 12.5 38 15.4
2004-03-24 10:11:24 51°24.578 3°15.795 50 12.8 41 16.9
2004-03-24 10:12:24 51°24.738 3°16.028 50.4 13.3 46 16.6
2004-03-24 10:13:24 51°24.898 3°16.273 49.7 13.2 45 13.6
2004-03-24 10:14:24 51°25.051 3°16.524 50.3 13 46 12.7
2004-03-24 10:15:24 51°25.203 3°16.773 50.4 13 46 10.7
2004-03-24 10:16:24 51°25.35 3°17.021 50 12.8 47 9.1
2004-03-24 10:17:24 51°25.496 3°17.268 49.6 12.9 47 8.4
2004-03-24 10:18:24 51°25.644 3°17.517 48.6 12.9 45 8.2
2004-03-24 10:19:24 51°25.787 3°17.674 21.9 8.6 15 7.9
2004-03-24 10:20:24 51°25.884 3°17.732 36.4 5 38 8.1
2004-03-24 10:21:24 51°25.92 3°17.805 53.2 2.2 67 8
2004-03-24 10:22:24 51°25.912 3°17.826 51.3 1 133 7.9
2004-03-24 10:23:24 51°25.902 3°17.845 53.4 0.9 129 7.9
2004-03-24 10:24:24 51°25.893 3°17.866 49.6 0.9 119 8.1
2004-03-24 10:25:24 51°25.887 3°17.888 42.8 0.8 116 8
2004-03-24 10:26:24 51°25.882 3°17.907 35.4 0.7 114 8.1
2004-03-24 10:27:24 51°25.877 3°17.925 28.4 0.7 112 8.1
2004-03-24 10:28:24 51°25.873 3°17.94 19.5 0.5 108 8.3
2004-03-24 10:29:24 51°25.871 3°17.952 9.1 0.5 105 8.3
2004-03-24 10:30:24 51°25.869 3°17.96 354.3 0.1 23 8.3
2004-03-24 10:31:24 51°25.881 3°17.882 278.5 7 268 8
2004-03-24 10:32:24 51°25.879 3°17.598 273.6 12.3 265 7.5
2004-03-24 10:33:24 51°25.835 3°17.266 265.3 12.9 258 7.3
2004-03-24 10:34:24 51°25.797 3°16.929 267.3 13 258 7.1
2004-03-24 10:35:24 51°25.762 3°16.593 271.7 12.7 265 7.1
2004-03-24 10:36:24 51°25.722 3°16.257 262 12.9 256 7.2
2004-03-24 10:37:24 51°25.71 3°15.916 281 12.8 271 7.2
2004-03-24 10:38:24 51°25.691 3°15.573 271.2 13 263 7.2
2004-03-24 10:39:24 51°25.644 3°15.232 263.1 13.2 254 7.2
2004-03-24 10:40:24 51°25.556 3°14.906 256.9 13.4 253 7.5
2004-03-24 10:41:24 51°25.508 3°14.556 260.7 13.7 250 7.8
2004-03-24 10:42:24 51°25.453 3°14.201 271 13.8 263 8.7
2004-03-24 10:43:24 51°25.405 3°13.837 266.5 14 259 8.9
2004-03-24 10:44:24 51°25.361 3°13.472 266 14 258 9.1
2004-03-24 10:45:24 51°25.321 3°13.105 271.4 14 264 9.5
2004-03-24 10:46:24 51°25.297 3°12.737 272.1 14 264 9.5
2004-03-24 10:47:24 51°25.28 3°12.369 274.1 13.8 265 9.2
2004-03-24 10:48:24 51°25.27 3°12.002 280.3 13.7 276 9.1
2004-03-24 10:49:24 51°25.337 3°11.662 298.9 13.3 291 9
2004-03-24 10:50:24 51°25.43 3°11.345 309.1 12.9 300 8.5
2004-03-24 10:51:24 51°25.544 3°11.062 315.7 12.3 308 7.5
2004-03-24 10:52:24 51°25.683 3°10.846 324.1 11.3 311 6.6
2004-03-24 10:53:24 51°25.794 3°10.604 325.5 11.1 319 6.8
2004-03-24 10:54:24 51°25.909 3°10.371 303.1 11.7 290 7
2004-03-24 10:55:24 51°25.982 3°10.075 310.2 12 300 7.1
2004-03-24 10:56:24 51°26.037 3°9.757 289.7 12.9 280 7.4
2004-03-24 10:57:24 51°26.106 3°9.436 301.6 13.1 289 7.9
2004-03-24 10:58:24 51°26.163 3°9.093 297.6 13.5 287 8.3
2004-03-24 10:59:24 51°26.219 3°8.741 288.9 14 277 9
2004-03-24 11:00:24 51°26.324 3°8.462 340.2 10.3 332 9.6
2004-03-24 11:01:24 51°26.414 3°8.448 23.5 3.1 18 10.2
2004-03-24 11:02:24 51°26.443 3°8.47 26.6 0.4 7 10.1
2004-03-24 11:03:24 51°26.435 3°8.46 19.4 0.8 223 10.4
2004-03-24 11:04:24 51°26.423 3°8.44 3 1.4 228 10
2004-03-24 11:05:24 51°26.407 3°8.41 352.5 1.5 230 10.1
2004-03-24 11:06:24 51°26.393 3°8.378 351.5 1.4 235 10.3
2004-03-24 11:07:24 51°26.38 3°8.346 354.6 1.5 235 10
2004-03-24 11:08:25 51°26.366 3°8.316 1.6 1.3 233 10
2004-03-24 11:09:24 51°26.352 3°8.294 14.9 1.2 220 9.7
2004-03-24 11:10:24 51°26.349 3°8.282 17 2.1 347 9.7
2004-03-24 11:11:24 51°26.443 3°8.168 338.7 11.1 324 10.1
2004-03-24 11:12:24 51°26.598 3°7.962 329.3 12.7 309 9.7
2004-03-24 11:13:24 51°26.716 3°7.662 316.2 13.5 302 10.2
2004-03-24 11:14:24 51°26.836 3°7.361 316 13.5 303 10.9
2004-03-24 11:15:24 51°26.96 3°7.063 316 13.4 305 11.3
2004-03-24 11:16:24 51°27.085 3°6.767 314.7 13.5 302 12
2004-03-24 11:17:24 51°27.208 3°6.466 315.7 13.5 303 12.8
2004-03-24 11:18:24 51°27.332 3°6.164 316.8 13.5 305 13.1
2004-03-24 11:19:24 51°27.448 3°5.849 311.8 13.9 299 13.5
2004-03-24 11:20:24 51°27.561 3°5.526 311.4 13.9 299 14.1
2004-03-24 11:21:24 51°27.675 3°5.201 312.4 14 299 14.2
2004-03-24 11:22:24 51°27.789 3°4.879 312.1 13.9 300 13.8
2004-03-24 11:23:24 51°27.904 3°4.556 312.3 14.1 300 15
2004-03-24 11:24:24 51°28.02 3°4.23 312.4 14.1 299 17.4
2004-03-24 11:25:24 51°28.137 3°3.902 312.3 14.2 300 19.5
2004-03-24 11:26:24 51°28.232 3°3.636 318.5 7.5 299 21.3
2004-03-24 11:27:24 51°28.262 3°3.504 311.3 3.5 269 22.1
2004-03-24 11:28:24 51°28.237 3°3.462 284.7 2.3 214 22.3
2004-03-24 11:29:25 51°28.208 3°3.428 273.1 2.2 217 21.9
2004-03-24 11:30:24 51°28.181 3°3.389 266.5 2.3 226 21.9
2004-03-24 11:31:24 51°28.151 3°3.334 261 3 231 22.2
2004-03-24 11:32:25 51°28.121 3°3.279 262.3 2.3 222 22.2
2004-03-24 11:33:24 51°28.094 3°3.24 270.1 2.3 219 22.1
2004-03-24 11:34:24 51°28.065 3°3.207 266.9 1.9 209 21.8
2004-03-24 11:35:24 51°28.037 3°3.18 252.3 2.1 213 21.8
2004-03-24 11:36:25 51°28.004 3°3.127 248.2 6 239 21.8
2004-03-24 11:37:24 51°27.925 3°2.834 254.5 15 248 22.1
2004-03-24 11:38:25 51°27.861 3°2.433 267.7 15.4 261 23
2004-03-24 11:39:24 51°27.825 3°2.033 270.1 15.4 264 23.4
2004-03-24 11:40:24 51°27.784 3°1.627 268.5 15.5 261 23.4
2004-03-24 11:41:24 51°27.743 3°1.22 268.1 15.6 260 23.3
2004-03-24 11:42:24 51°27.703 3°0.812 269.2 15.5 262 23.4
2004-03-24 11:43:24 51°27.661 3°0.402 268.5 15.6 259 21.4
2004-03-24 11:44:24 51°27.618 2°59.993 268.3 15.5 260 20.3
2004-03-24 11:45:24 51°27.557 2°59.589 263.9 15.5 257 17.8
2004-03-24 11:46:24 51°27.496 2°59.185 264.8 15.5 255 19.7
2004-03-24 11:47:24 51°27.436 2°58.783 264.3 15.6 257 17
2004-03-24 11:48:24 51°27.376 2°58.379 264.9 15.6 257 17.5
2004-03-24 11:49:24 51°27.315 2°57.977 264.9 15.4 256 19.5
2004-03-24 11:50:24 51°27.255 2°57.577 264.4 15.6 257 21.9
2004-03-24 11:51:24 51°27.193 2°57.176 263.9 15.5 257 24.5
2004-03-24 11:52:24 51°27.132 2°56.776 264.9 15.4 258 19.8
2004-03-24 11:53:24 51°27.071 2°56.371 265.9 15.6 258 26.6
2004-03-24 11:54:25 51°27.01 2°55.96 264.2 15.4 257 28.2
2004-03-24 11:55:24 51°26.953 2°55.563 266.8 15.5 260 29.3
2004-03-24 11:56:24 51°26.901 2°55.157 266.3 15.5 257 26.4
2004-03-24 11:57:24 51°26.85 2°54.751 267.1 15.4 258 26.1
2004-03-24 11:58:24 51°26.797 2°54.345 266.9 15.6 257 24.6
2004-03-24 11:59:24 51°26.747 2°53.936 266.8 15.6 260 30.8
2004-03-24 12:00:24 51°26.697 2°53.529 266.2 15.5 260 30.3
2004-03-24 12:01:25 51°26.645 2°53.113 265.9 15.7 259 30.5
2004-03-24 12:02:25 51°26.593 2°52.704 265.7 15.6 257 28.3
2004-03-24 12:03:24 51°26.544 2°52.307 265.6 15.5 257 26.7
2004-03-24 12:04:24 51°26.494 2°51.908 265.9 14.9 259 25.4
2004-03-24 12:05:25 51°26.453 2°51.513 270.1 14.6 262 25.9
2004-03-24 12:06:24 51°26.42 2°51.137 270 14.5 262 24.9
2004-03-24 12:07:24 51°26.383 2°50.755 269.1 14.5 262 23.8
2004-03-24 12:08:24 51°26.347 2°50.376 269.1 14.4 261 23.9
2004-03-24 12:09:24 51°26.31 2°49.996 269 14.6 260 23.4
2004-03-24 12:10:24 51°26.264 2°49.618 266 14.4 258 23.5
2004-03-24 12:11:24 51°26.216 2°49.237 264.1 14.5 259 23.7
2004-03-24 12:12:24 51°26.115 2°48.899 237.4 13.2 235 23.9
2004-03-24 12:13:24 51°26.009 2°48.659 254.4 7.8 247 24.2
2004-03-24 12:14:24 51°26.019 2°48.526 319.4 3.3 293 23.5
2004-03-24 12:15:24 51°26.021 2°48.482 344.4 1.4 217 23.8
2004-03-24 12:16:25 51°26.012 2°48.457 354 0.9 264 24
2004-03-24 12:17:24 51°26.01 2°48.441 16.5 0.4 249 24.3
2004-03-24 12:18:24 51°26.006 2°48.438 30.7 0.2 196 24.2
2004-03-24 12:19:24 51°26 2°48.443 40.9 0.5 150 24.2
2004-03-24 12:20:24 51°25.992 2°48.454 43.7 0.7 147 24.1
2004-03-24 12:21:24 51°25.982 2°48.459 43.4 0.8 163 24.5
2004-03-24 12:22:24 51°25.969 2°48.464 42.2 0.9 163 24.3
2004-03-24 12:23:24 51°25.953 2°48.466 45.3 1.2 169 24.2
2004-03-24 12:24:24 51°25.954 2°48.517 73.9 5.3 86 24.2
2004-03-24 12:25:25 51°25.843 2°48.624 183.6 10.2 192 24.7
2004-03-24 12:26:24 51°25.709 2°48.403 239.8 13.8 241 24.4
2004-03-24 12:27:24 51°25.603 2°48.063 252.3 14.4 249 24.2
2004-03-24 12:28:24 51°25.511 2°47.709 253.7 14.3 249 26.6
2004-03-24 12:29:24 51°25.413 2°47.363 250.6 14.2 245 26.8
2004-03-24 12:30:24 51°25.317 2°47.015 251.8 14.3 245 26.1
2004-03-24 12:31:24 51°25.219 2°46.671 251 14.2 249 26.1
2004-03-24 12:32:24 51°25.123 2°46.326 251.1 14.3 242 25.9
2004-03-24 12:33:24 51°25.026 2°45.984 251.2 14.1 246 26.2
2004-03-24 12:34:25 51°24.926 2°45.633 251.7 14.2 246 26.5
2004-03-24 12:35:25 51°24.831 2°45.289 252.1 14.2 250 27.7
2004-03-24 12:36:24 51°24.736 2°44.952 251.3 14.2 243 25
2004-03-24 12:37:24 51°24.639 2°44.613 251 14.1 246 25.9
2004-03-24 12:38:24 51°24.544 2°44.275 252 13.9 248 26.6
2004-03-24 12:39:24 51°24.447 2°43.938 250.4 14 245 26.7
2004-03-24 12:40:24 51°24.352 2°43.602 250.2 13.9 246 22
2004-03-24 12:41:24 51°24.258 2°43.265 249.6 13.7 243 26.2
2004-03-24 12:42:24 51°24.146 2°42.946 244.2 14 240 26
2004-03-24 12:43:24 51°24.033 2°42.625 242.4 13.9 240 27.8
2004-03-24 12:44:24 51°23.908 2°42.316 239.4 13.9 238 28.8
2004-03-24 12:45:25 51°23.768 2°42.013 238 13.9 236 27.6
2004-03-24 12:46:24 51°23.627 2°41.728 235.1 14 228 28.5
2004-03-24 12:47:24 51°23.479 2°41.445 235.8 13.8 231 30.8
2004-03-24 12:48:24 51°23.33 2°41.166 233 13.8 229 31.4
2004-03-24 12:49:25 51°23.18 2°40.886 234.9 13.7 230 30.6
2004-03-24 12:50:24 51°23.035 2°40.613 234.6 14 227 31
2004-03-24 12:51:24 51°22.895 2°40.323 240.8 13.7 234 30.6
2004-03-24 12:52:24 51°22.765 2°40.024 240.3 13.6 235 31.4
2004-03-24 12:53:24 51°22.64 2°39.722 240.5 13.8 236 30.8
2004-03-24 12:54:25 51°22.52 2°39.413 244.1 13.6 236 30.4
2004-03-24 12:55:24 51°22.408 2°39.113 244.7 13.3 240 31.3
2004-03-24 12:56:25 51°22.299 2°38.794 249.6 13.3 242 31.4
2004-03-24 12:57:24 51°22.202 2°38.483 248.2 13.4 246 31.8
2004-03-24 12:58:25 51°22.101 2°38.159 248.9 13.6 242 31.9
2004-03-24 12:59:25 51°21.999 2°37.848 249.6 13.2 240 32.1
2004-03-24 13:00:25 51°21.902 2°37.531 249.6 13.3 242 32.6
2004-03-24 13:01:25 51°21.806 2°37.217 249.3 13.2 244 33.3
2004-03-24 13:02:25 51°21.716 2°36.898 249.3 13.3 244 33.2
2004-03-24 13:03:24 51°21.628 2°36.588 251.2 12.9 245 32.8
2004-03-24 13:04:24 51°21.538 2°36.271 248.9 13 248 33.7
2004-03-24 13:05:24 51°21.447 2°35.959 250.1 13.2 244 34.7
2004-03-24 13:06:25 51°21.357 2°35.638 251.8 12.7 243 34.9
2004-03-24 13:07:25 51°21.27 2°35.326 250.9 12.9 244 36.5
2004-03-24 13:08:24 51°21.186 2°35.015 252.1 12.9 249 35.2
2004-03-24 13:09:24 51°21.097 2°34.706 249.5 12.9 244 33.3
2004-03-24 13:10:25 51°21.009 2°34.39 250.1 13 247 33.4
2004-03-24 13:11:25 51°20.944 2°34.064 256.6 12.8 252 33.5
2004-03-24 13:12:24 51°20.881 2°33.745 255.4 13 253 33.1
2004-03-24 13:13:24 51°20.815 2°33.421 254.9 12.7 252 32.3
2004-03-24 13:14:24 51°20.75 2°33.098 255.4 12.9 253 32.2
2004-03-24 13:15:24 51°20.683 2°32.775 256.7 12.8 251 32.5
2004-03-24 13:16:24 51°20.615 2°32.454 255.4 12.6 252 32.7
2004-03-24 13:17:25 51°20.547 2°32.127 255.4 12.6 249 32.7
2004-03-24 13:18:25 51°20.478 2°31.81 253.5 12.6 254 28.9
2004-03-24 13:19:25 51°20.409 2°31.498 256.6 12.4 249 23.6
2004-03-24 13:20:24 51°20.344 2°31.19 257.1 12.2 254 19.8
2004-03-24 13:21:25 51°20.273 2°30.879 253.6 12.4 250 17.3
2004-03-24 13:22:24 51°20.206 2°30.58 256.2 12.4 253 13.1
2004-03-24 13:23:24 51°20.144 2°30.312 254.9 8.3 246 14.6
2004-03-24 13:24:24 51°20.096 2°30.151 248 6.1 234 15.1
2004-03-24 13:25:24 51°20.071 2°30.052 272.8 3 268 13.7
2004-03-24 13:26:25 51°20.051 2°29.984 251.6 3.7 233 16.6
2004-03-24 13:27:25 51°20.034 2°29.951 271.4 0.7 94 16
2004-03-24 13:28:24 51°20.035 2°29.976 300.4 1.1 73 14.8
2004-03-24 13:29:25 51°20.042 2°29.992 297.6 0.7 49 16.5
2004-03-24 13:30:24 51°20.046 2°29.999 281.2 0.2 70 17.2
2004-03-24 13:31:24 51°20.044 2°30.006 261.3 0.5 136 17.4
2004-03-24 13:32:25 51°20.034 2°30.021 253.6 0.8 127 17.4
2004-03-24 13:33:24 51°20.028 2°30.048 260.1 1.4 105 16.3
2004-03-24 13:34:25 51°20.015 2°30.07 239.9 2.1 191 13.8
2004-03-24 13:35:25 51°19.922 2°30.162 150.6 11.9 135 16.5
2004-03-24 13:36:25 51°19.782 2°30.476 135.5 15.4 122 19
2004-03-24 13:37:25 51°19.634 2°30.801 132.8 15.1 126 24.3
2004-03-24 13:38:24 51°19.49 2°31.116 133.3 14.7 126 32.2
2004-03-24 13:39:24 51°19.344 2°31.427 134.8 14.7 128 32.7
2004-03-24 13:40:25 51°19.201 2°31.739 136.4 14.1 128 33.1
2004-03-24 13:41:25 51°19.049 2°32.033 137.7 14.5 127 33.2
2004-03-24 13:42:24 51°18.903 2°32.326 138.8 14 130 33.4
2004-03-24 13:43:25 51°18.747 2°32.624 137.3 14.8 128 32.1
2004-03-24 13:44:25 51°18.597 2°32.92 138.6 14.4 130 28.8
2004-03-24 13:45:24 51°18.447 2°33.209 138.1 14.7 126 23.6
2004-03-24 13:46:24 51°18.294 2°33.506 138.2 14.8 129 22.6
2004-03-24 13:47:25 51°18.139 2°33.815 138.9 14.7 129 28.2
2004-03-24 13:48:25 51°17.989 2°34.12 136.6 14.6 125 30.6
2004-03-24 13:49:24 51°17.847 2°34.427 135.7 14.6 122 29.7
2004-03-24 13:50:24 51°17.701 2°34.726 141.4 14.5 128 21.9
2004-03-24 13:51:24 51°17.553 2°35.042 137.9 14.7 129 15.9
2004-03-24 13:52:24 51°17.403 2°35.348 136.9 14.7 127 13.1
2004-03-24 13:53:24 51°17.249 2°35.655 135.5 15 128 16.2
2004-03-24 13:54:24 51°17.095 2°35.962 139.5 14.5 131 24
2004-03-24 13:55:25 51°16.945 2°36.268 138.6 14.3 127 29.2
2004-03-24 13:56:24 51°16.802 2°36.563 138.6 13.6 125 29.5
2004-03-24 13:57:24 51°16.704 2°36.753 170.9 5.7 156 29
2004-03-24 13:58:25 51°16.654 2°36.756 225.5 1.7 197 29
2004-03-24 13:59:24 51°16.642 2°36.755 244.8 0.5 121 29
2004-03-24 14:00:24 51°16.645 2°36.765 262 0.6 50 29.2
2004-03-24 14:01:24 51°16.653 2°36.781 271.2 0.9 49 29.2
2004-03-24 14:02:25 51°16.662 2°36.804 280 1.1 56 29.5
2004-03-24 14:03:24 51°16.673 2°36.831 287.7 1.3 63 29.3
2004-03-24 14:04:24 51°16.683 2°36.86 289.6 1.3 62 29.2
2004-03-24 14:05:25 51°16.694 2°36.89 295.6 1.2 65 29
2004-03-24 14:06:25 51°16.704 2°36.921 296.3 1.4 62 29
2004-03-24 14:07:24 51°16.715 2°36.95 295.2 1.1 54 29.3
2004-03-24 14:08:24 51°16.727 2°36.972 291 1.1 40 29
2004-03-24 14:09:24 51°16.741 2°36.985 286.2 1 22 29
2004-03-24 14:10:25 51°16.752 2°36.973 270.6 1 300 29.3
2004-03-24 14:11:24 51°16.761 2°36.961 272.7 0.6 345 29.4
2004-03-24 14:12:25 51°16.773 2°36.965 282 0.8 24 29.4
2004-03-24 14:13:24 51°16.786 2°36.976 286.4 0.8 6 29.4
2004-03-24 14:14:24 51°16.774 2°36.95 218.5 3 191 29.5
2004-03-24 14:15:24 51°16.665 2°37.026 172 11.3 158 29.2
2004-03-24 14:16:24 51°16.46 2°37.094 180.5 12.8 171 29.2
2004-03-24 14:17:24 51°16.249 2°37.155 177.8 12.9 169 26.7
2004-03-24 14:18:25 51°16.034 2°37.244 171.8 13.3 165 17
2004-03-24 14:19:25 51°15.825 2°37.372 167 13.9 160 14.2
2004-03-24 14:20:25 51°15.615 2°37.515 165.4 13.5 155 11.8
2004-03-24 14:21:25 51°15.407 2°37.681 160.7 14.1 149 12.3
2004-03-24 14:22:24 51°15.208 2°37.863 159.7 13.8 152 12.9
2004-03-24 14:23:25 51°15.001 2°38.062 156.5 14 148 15.4
2004-03-24 14:24:24 51°14.805 2°38.254 158.1 14.2 146 18.7
2004-03-24 14:25:25 51°14.597 2°38.442 159.5 14.1 150 19.5
2004-03-24 14:26:25 51°14.393 2°38.604 166.2 13.5 156 20.5
2004-03-24 14:27:25 51°14.182 2°38.712 178.7 13.1 170 17
2004-03-24 14:28:25 51°13.967 2°38.726 188.5 12.9 184 14.5
2004-03-24 14:29:24 51°13.764 2°38.634 207.5 13.4 199 16
2004-03-24 14:30:24 51°13.564 2°38.504 206.8 13.5 204 16.6
2004-03-24 14:31:25 51°13.364 2°38.376 208.7 12.7 204 17.1
2004-03-24 14:32:25 51°13.166 2°38.245 209.6 13 206 17
2004-03-24 14:33:24 51°12.971 2°38.121 205.7 13 199 16.4
2004-03-24 14:34:25 51°12.766 2°37.999 207.9 12.9 202 15.7
2004-03-24 14:35:25 51°12.571 2°37.859 209.5 13.1 203 15.3
2004-03-24 14:36:24 51°12.377 2°37.721 209 13 203 15.2
2004-03-24 14:37:24 51°12.18 2°37.579 211 12.9 205 15.3
2004-03-24 14:38:25 51°11.981 2°37.432 211.1 12.8 205 15.2
2004-03-24 14:39:25 51°11.786 2°37.29 209.1 13.1 202 15.7
2004-03-24 14:40:24 51°11.592 2°37.154 209.6 13.1 200 16
2004-03-24 14:41:24 51°11.395 2°37.014 209 13 202 16.3
2004-03-24 14:42:24 51°11.2 2°36.883 208.5 12.9 204 15.6
2004-03-24 14:43:25 51°11.001 2°36.745 210.7 12.9 209 15.1
2004-03-24 14:44:25 51°10.805 2°36.606 209.9 13 204 13.9
2004-03-24 14:45:25 51°10.608 2°36.491 205.4 12 197 13
2004-03-24 14:46:25 51°10.409 2°36.384 202.8 12.8 193 12.3
2004-03-24 14:47:25 51°10.195 2°36.382 178.8 13.3 168 19
2004-03-24 14:48:25 51°10.005 2°36.564 138.6 14.3 125 20.6
2004-03-24 14:49:24 51°9.971 2°36.928 89.6 15 83 20.8
2004-03-24 14:50:24 51°10.05 2°37.303 70.5 15.2 67 20.4
2004-03-24 14:51:24 51°10.146 2°37.675 73.8 15.1 69 20
2004-03-24 14:52:24 51°10.224 2°38.058 77.4 15.2 73 19.4
2004-03-24 14:53:24 51°10.297 2°38.444 77.6 15.3 73 18.9
2004-03-24 14:54:24 51°10.372 2°38.831 77.5 15.2 73 19.2
2004-03-24 14:55:24 51°10.443 2°39.216 78.6 15.2 75 18.2
2004-03-24 14:56:25 51°10.522 2°39.606 75.7 15.3 72 17.6
2004-03-24 14:57:25 51°10.605 2°39.985 74.9 15.2 71 17
2004-03-24 14:58:24 51°10.689 2°40.358 75.8 15.1 72 16.3
2004-03-24 14:59:25 51°10.775 2°40.742 75.4 15.1 71 15.7
2004-03-24 15:00:24 51°10.856 2°41.118 76.2 15.2 72 15.2
2004-03-24 15:01:25 51°10.935 2°41.508 76.8 15.2 73 15.3
2004-03-24 15:02:25 51°11.01 2°41.85 70.8 10.4 64 15.4
2004-03-24 15:03:25 51°11.082 2°41.995 38.5 4 47 15.3
2004-03-24 15:04:25 51°11.09 2°42.037 16.7 1.2 88 -999
2004-03-24 15:05:24 51°11.088 2°42.069 8.8 1.3 104 15.3
2004-03-24 15:06:25 51°11.08 2°42.101 356.3 1.3 119 15.4
2004-03-24 15:07:25 51°11.071 2°42.136 336.5 1.6 110 15.3
2004-03-24 15:08:25 51°11.064 2°42.175 315.3 1.6 98 15.4
2004-03-24 15:09:25 51°11.061 2°42.215 295.8 1.5 93 15.6
2004-03-24 15:10:24 51°11.058 2°42.206 256.3 2.8 242 15.5
2004-03-24 15:11:24 51°10.981 2°42.209 163 6.9 144 15.5
2004-03-24 15:12:24 51°10.966 2°42.401 71.7 8.5 64 15.7
2004-03-24 15:13:25 51°11.065 2°42.704 65.8 14.7 63 15.4
2004-03-24 15:14:25 51°11.149 2°43.074 76.5 14.9 73 15.3
2004-03-24 15:15:24 51°11.226 2°43.445 75.9 15 71 15.3
2004-03-24 15:16:24 51°11.305 2°43.818 76.6 14.9 70 15.3
2004-03-24 15:17:25 51°11.385 2°44.197 75.8 14.8 71 15.4
2004-03-24 15:18:25 51°11.464 2°44.568 76 14.7 72 15.3
2004-03-24 15:19:24 51°11.545 2°44.932 76.9 14.8 72 15.3
2004-03-24 15:20:25 51°11.628 2°45.311 76.2 15 70 15.5
2004-03-24 15:21:25 51°11.711 2°45.685 75.5 15 69 15.5
2004-03-24 15:22:24 51°11.794 2°46.052 75.5 14.9 69 15.6
2004-03-24 15:23:24 51°11.883 2°46.42 74.7 15 69 15.4
2004-03-24 15:24:25 51°11.977 2°46.796 74.2 15.1 68 15.3
2004-03-24 15:25:25 51°12.076 2°47.16 70.2 15.2 65 15.2
2004-03-24 15:26:24 51°12.185 2°47.511 68.4 15 63 15.2
2004-03-24 15:27:25 51°12.298 2°47.87 69.3 14.9 61 15
2004-03-24 15:28:24 51°12.407 2°48.22 68.3 14.9 63 14.9
2004-03-24 15:29:24 51°12.52 2°48.571 67.2 14.9 62 14.6
2004-03-24 15:30:24 51°12.636 2°48.919 67.6 14.9 62 14.5
2004-03-24 15:31:25 51°12.754 2°49.273 67.5 15 63 14.6
2004-03-24 15:32:25 51°12.871 2°49.621 66.3 14.9 63 14.4
2004-03-24 15:33:25 51°12.988 2°49.967 67 14.9 62 14.3
2004-03-24 15:34:25 51°13.104 2°50.317 66.3 15.1 63 14.1
2004-03-24 15:35:24 51°13.22 2°50.662 67.6 15.1 62 13.9
2004-03-24 15:36:25 51°13.336 2°51.017 66.9 14.8 62 13.5
2004-03-24 15:37:25 51°13.454 2°51.365 66.5 14.9 61 13.6
2004-03-24 15:38:24 51°13.569 2°51.707 67.8 15 62 13.4
2004-03-24 15:39:25 51°13.688 2°52.062 67.2 15.1 61 13.4
2004-03-24 15:40:24 51°13.798 2°52.408 70.6 15 65 13
2004-03-24 15:41:25 51°13.902 2°52.773 71.9 14.8 66 13
2004-03-24 15:42:24 51°14 2°53.122 70.9 14.7 64 12.6
2004-03-24 15:43:25 51°14.1 2°53.484 71 14.7 66 12.1
2004-03-24 15:44:24 51°14.198 2°53.834 71.6 14.6 66 11.8
2004-03-24 15:45:24 51°14.292 2°54.191 73.5 14.6 68 11.7
2004-03-24 15:46:25 51°14.366 2°54.56 82.3 14 76 12.1
2004-03-24 15:47:25 51°14.375 2°54.917 102.4 13.5 99 12.5
2004-03-24 15:48:25 51°14.291 2°55.193 129.1 10.7 127 13.5
2004-03-24 15:49:25 51°14.176 2°55.371 150 8.7 148 13.5
2004-03-24 15:50:25 51°14.055 2°55.464 158.5 7.6 154 12.8